Portada
METAR-TAF:

METAR-TAF

Aeroports :

Jinotega, Nicaragua

latitud: 13-05N, longitud: 085-59W, altitud: 985 m

Observació

L'informe es va fer fa 34 minuts, a les 16:00 UTC
Vent calma
Temperatura 25°C
Humitat 74%
Pressió 1014 hPa
Visibilitat 10 km o més
Núvols disperses a una alçada de 1800 ft

METAR: MNJG 251600Z 00000KT 9999 SCT018 25/20 Q1014

Hora: 10:34 (16:34 UTC)


TAF: manca

Observacions i pronòstics meteorològics de més de 4000 aeroports (METAR i TAF).

Les estacions disponibles són els punts grocs i vermells al mapa.

Posi el ratolí al punt desitjat per veure el nom de l'estació.

Feu clic per veure les observacions i els pronòstics meteorològics.

Per canviar el mapa: feu clic els botons verds amb una creu de color negre per apropar; al botó verd amb un guió per allunyar la imatge; o en les fletxes verdes per a mapes adjacents.


METAR-TAF: